createdAt,value
2018-10-18T00:01:18.029Z,14.90
2018-10-18T00:03:48.054Z,14.80
2018-10-18T00:06:18.036Z,14.90
2018-10-18T00:08:47.909Z,14.80
2018-10-18T00:11:17.837Z,14.80
2018-10-18T00:13:47.728Z,14.80
2018-10-18T00:16:17.746Z,14.70
2018-10-18T00:18:48.166Z,14.70
2018-10-18T00:21:18.098Z,14.70
2018-10-18T00:23:48.032Z,14.70
2018-10-18T00:26:18.120Z,14.60
2018-10-18T00:28:47.938Z,14.60
2018-10-18T00:31:17.839Z,14.60
2018-10-18T00:33:48.105Z,14.60
2018-10-18T00:36:18.397Z,14.60
2018-10-18T00:38:48.384Z,14.50
2018-10-18T00:41:18.437Z,14.50
2018-10-18T00:43:48.226Z,14.50
2018-10-18T00:46:18.334Z,14.50
2018-10-18T00:48:48.275Z,14.50
2018-10-18T00:51:18.215Z,14.50
2018-10-18T00:53:48.095Z,14.40
2018-10-18T00:56:17.907Z,14.50
2018-10-18T00:58:47.720Z,14.40
2018-10-18T01:01:17.698Z,14.40
2018-10-18T01:03:47.792Z,14.40
2018-10-18T01:06:17.892Z,14.40
2018-10-18T01:08:48.187Z,14.30
2018-10-18T01:11:18.150Z,14.30
2018-10-18T01:13:48.383Z,14.30
2018-10-18T01:16:18.179Z,14.30
2018-10-18T01:18:48.395Z,14.30
2018-10-18T01:21:18.189Z,14.30
2018-10-18T01:23:48.078Z,14.30
2018-10-18T01:26:18.047Z,14.30
2018-10-18T01:28:47.859Z,14.30
2018-10-18T01:31:17.694Z,14.40
2018-10-18T01:33:47.666Z,14.40
2018-10-18T01:36:17.657Z,14.40
2018-10-18T01:38:47.566Z,14.40
2018-10-18T01:41:17.481Z,14.40
2018-10-18T01:43:47.343Z,14.40
2018-10-18T01:46:17.298Z,14.50
2018-10-18T01:48:47.308Z,14.50
2018-10-18T01:51:17.250Z,14.60
2018-10-18T01:53:47.108Z,14.60
2018-10-18T01:56:17.222Z,14.60
2018-10-18T01:58:46.994Z,14.60
2018-10-18T02:01:17.355Z,14.70
2018-10-18T02:03:47.550Z,14.60
2018-10-18T02:06:17.697Z,14.60
2018-10-18T02:08:47.500Z,14.60
2018-10-18T02:11:17.297Z,14.60
2018-10-18T02:13:47.532Z,14.70
2018-10-18T02:16:17.628Z,14.70
2018-10-18T02:18:47.813Z,14.70
2018-10-18T02:21:17.750Z,14.70
2018-10-18T02:23:47.701Z,14.70
2018-10-18T02:26:17.752Z,14.70
2018-10-18T02:28:47.650Z,14.70
2018-10-18T02:31:17.526Z,14.80
2018-10-18T02:33:47.497Z,14.70
2018-10-18T02:36:17.552Z,14.80
2018-10-18T02:38:47.377Z,14.80
2018-10-18T02:41:17.218Z,14.80
2018-10-18T02:43:47.280Z,14.80
2018-10-18T02:46:17.601Z,14.80
2018-10-18T02:48:47.611Z,14.80
2018-10-18T02:51:17.570Z,14.80
2018-10-18T02:53:47.560Z,14.80
2018-10-18T02:56:17.464Z,14.80
2018-10-18T02:58:47.349Z,14.80
2018-10-18T03:01:17.293Z,14.80
2018-10-18T03:03:47.198Z,14.90
2018-10-18T03:06:17.465Z,14.90
2018-10-18T03:08:47.118Z,15.00
2018-10-18T03:11:17.089Z,15.00
2018-10-18T03:13:46.869Z,15.00
2018-10-18T03:16:16.983Z,14.90
2018-10-18T03:18:47.080Z,14.90
2018-10-18T03:21:16.995Z,14.90
2018-10-18T03:23:46.892Z,14.90
2018-10-18T03:26:16.792Z,14.90
2018-10-18T03:28:46.609Z,14.90
2018-10-18T03:31:16.752Z,14.90
2018-10-18T03:33:46.539Z,14.90
2018-10-18T03:36:17.102Z,14.90
2018-10-18T03:38:47.023Z,14.90
2018-10-18T03:41:17.025Z,14.90
2018-10-18T03:43:46.963Z,14.90
2018-10-18T03:46:16.857Z,15.00
2018-10-18T03:48:47.016Z,15.00
2018-10-18T03:51:17.085Z,15.00
2018-10-18T03:53:47.395Z,15.00
2018-10-18T03:56:17.205Z,15.00
2018-10-18T03:58:47.208Z,15.00
2018-10-18T04:01:17.307Z,15.00
2018-10-18T04:03:47.205Z,15.00
2018-10-18T04:06:17.820Z,15.00
2018-10-18T04:08:47.733Z,15.00
2018-10-18T04:11:17.522Z,15.00
2018-10-18T04:13:47.700Z,15.00
2018-10-18T04:16:17.699Z,15.00
2018-10-18T04:18:47.738Z,15.00
2018-10-18T04:21:17.736Z,15.00
2018-10-18T04:23:47.748Z,15.10
2018-10-18T04:26:17.691Z,15.10
2018-10-18T04:28:47.664Z,15.10
2018-10-18T04:31:17.480Z,15.10
2018-10-18T04:33:47.439Z,15.10
2018-10-18T04:36:17.568Z,15.10
2018-10-18T04:38:47.345Z,15.00
2018-10-18T04:41:17.205Z,15.00
2018-10-18T04:43:47.063Z,15.10
2018-10-18T04:46:16.930Z,15.00
2018-10-18T04:48:46.967Z,15.00
2018-10-18T04:51:17.626Z,15.00
2018-10-18T04:53:47.437Z,15.00
2018-10-18T04:56:17.867Z,15.00
2018-10-18T04:58:47.900Z,15.00
2018-10-18T05:01:17.958Z,15.00
2018-10-18T05:03:47.717Z,15.00
2018-10-18T05:06:17.612Z,15.00
2018-10-18T05:08:47.675Z,15.00
2018-10-18T05:11:17.603Z,15.00
2018-10-18T05:13:47.505Z,15.00
2018-10-18T05:16:17.420Z,15.00
2018-10-18T05:18:47.425Z,15.00
2018-10-18T05:21:17.455Z,15.00
2018-10-18T05:23:47.346Z,15.00
2018-10-18T05:26:17.273Z,15.00
2018-10-18T05:28:47.253Z,15.00
2018-10-18T05:31:17.300Z,15.00
2018-10-18T05:33:47.103Z,14.90
2018-10-18T05:36:16.981Z,14.90
2018-10-18T05:38:46.976Z,14.90
2018-10-18T05:41:16.890Z,14.90
2018-10-18T05:43:47.066Z,14.90
2018-10-18T05:46:17.172Z,14.90
2018-10-18T05:48:47.218Z,14.80
2018-10-18T05:51:17.194Z,14.80
2018-10-18T05:53:47.248Z,14.70
2018-10-18T05:56:17.446Z,14.70
2018-10-18T05:58:47.306Z,14.70
2018-10-18T06:01:17.303Z,14.60
2018-10-18T06:03:47.187Z,14.60
2018-10-18T06:06:17.066Z,14.60
2018-10-18T06:08:47.004Z,14.60
2018-10-18T06:11:31.150Z,14.60
2018-10-18T06:14:01.058Z,14.60
2018-10-18T06:16:31.206Z,14.60
2018-10-18T06:19:01.245Z,14.60
2018-10-18T06:21:31.059Z,14.50
2018-10-18T06:24:00.996Z,14.50
2018-10-18T06:26:30.902Z,14.70
2018-10-18T06:29:00.990Z,14.70
2018-10-18T06:31:31.093Z,14.70
2018-10-18T06:34:01.135Z,14.70
2018-10-18T06:36:30.943Z,14.60
2018-10-18T06:39:00.948Z,14.70
2018-10-18T06:41:30.913Z,14.80
2018-10-18T06:44:00.841Z,14.70
2018-10-18T06:46:30.950Z,14.80
2018-10-18T06:49:01.001Z,14.80
2018-10-18T06:51:30.945Z,14.90
2018-10-18T06:54:00.739Z,14.80
2018-10-18T06:56:30.872Z,14.80
2018-10-18T06:59:00.652Z,14.80
2018-10-18T07:01:30.622Z,14.80
2018-10-18T07:04:00.559Z,14.80
2018-10-18T07:06:30.390Z,14.90
2018-10-18T07:09:00.341Z,14.80
2018-10-18T07:11:30.333Z,14.80
2018-10-18T07:14:00.760Z,14.80
2018-10-18T07:16:31.492Z,14.80
2018-10-18T07:19:01.394Z,14.80
2018-10-18T07:21:31.291Z,14.80
2018-10-18T07:24:01.723Z,14.90
2018-10-18T07:26:31.931Z,14.90
2018-10-18T07:29:01.946Z,14.90
2018-10-18T07:31:31.893Z,14.80
2018-10-18T07:34:02.189Z,14.80
2018-10-18T07:36:32.491Z,14.70
2018-10-18T07:39:02.564Z,14.70
2018-10-18T07:41:32.517Z,14.60
2018-10-18T07:44:02.827Z,14.50
2018-10-18T07:46:32.664Z,14.40
2018-10-18T07:49:02.896Z,14.30
2018-10-18T07:51:32.709Z,14.30
2018-10-18T07:54:02.531Z,14.30
2018-10-18T07:56:32.866Z,14.40
2018-10-18T07:59:03.291Z,14.40
2018-10-18T08:01:33.206Z,14.50
2018-10-18T08:04:03.155Z,14.50
2018-10-18T08:06:33.489Z,14.50
2018-10-18T08:09:03.415Z,14.50
2018-10-18T08:11:33.292Z,14.50
2018-10-18T08:14:03.279Z,14.40
2018-10-18T08:16:33.370Z,14.50
2018-10-18T08:19:03.771Z,14.50
2018-10-18T08:21:33.838Z,14.50
2018-10-18T08:24:04.903Z,14.50
2018-10-18T08:26:34.885Z,14.50
2018-10-18T08:29:05.373Z,14.60
2018-10-18T08:31:35.531Z,14.60
2018-10-18T08:34:05.483Z,14.70
2018-10-18T08:36:35.567Z,14.80
2018-10-18T08:39:07.718Z,14.80
2018-10-18T08:41:37.696Z,14.90
2018-10-18T08:44:07.789Z,15.00
2018-10-18T08:46:37.612Z,15.00
2018-10-18T08:49:07.686Z,15.10
2018-10-18T08:51:37.552Z,15.20
2018-10-18T08:54:07.795Z,15.20
2018-10-18T08:56:37.733Z,15.10
2018-10-18T08:59:07.856Z,15.00
2018-10-18T09:01:37.725Z,15.00
2018-10-18T09:04:07.736Z,15.00
2018-10-18T09:06:37.599Z,14.90
2018-10-18T09:09:09.738Z,14.90
2018-10-18T09:11:39.813Z,15.00
2018-10-18T09:14:09.883Z,15.10
2018-10-18T09:16:39.704Z,15.20
2018-10-18T09:19:09.593Z,15.40
2018-10-18T09:21:40.488Z,15.50
2018-10-18T09:24:10.483Z,15.60
2018-10-18T09:26:40.342Z,15.70
2018-10-18T09:29:10.207Z,15.80
2018-10-18T09:31:40.204Z,15.90
2018-10-18T09:34:10.100Z,16.00
2018-10-18T09:36:40.123Z,16.00
2018-10-18T09:39:10.541Z,16.00
2018-10-18T09:41:40.375Z,16.00
2018-10-18T09:44:10.381Z,16.10
2018-10-18T09:46:40.255Z,16.10
2018-10-18T09:49:10.326Z,16.20
2018-10-18T09:51:40.374Z,16.30
2018-10-18T09:54:10.480Z,16.40
2018-10-18T09:56:40.415Z,16.40
2018-10-18T09:59:10.360Z,16.40
2018-10-18T10:01:45.349Z,16.50
2018-10-18T10:04:15.404Z,16.40
2018-10-18T10:06:45.266Z,16.50
2018-10-18T10:09:15.228Z,16.60
2018-10-18T10:11:45.584Z,16.70
2018-10-18T10:14:15.329Z,16.70
2018-10-18T10:16:45.070Z,16.80
2018-10-18T10:19:15.089Z,16.90
2018-10-18T10:21:44.922Z,17.00
2018-10-18T10:24:14.903Z,17.00
2018-10-18T10:26:45.139Z,16.80
2018-10-18T10:29:15.114Z,16.60
2018-10-18T10:31:45.257Z,16.50
2018-10-18T10:34:16.043Z,16.50
2018-10-18T10:36:46.019Z,16.40
2018-10-18T10:39:15.873Z,16.40
2018-10-18T10:41:45.735Z,16.30
2018-10-18T10:44:15.774Z,16.30
2018-10-18T10:46:45.677Z,16.40
2018-10-18T10:49:15.994Z,16.40
2018-10-18T10:51:45.978Z,16.40
2018-10-18T10:54:15.833Z,16.50
2018-10-18T10:56:45.806Z,16.70
2018-10-18T10:59:17.806Z,16.90
2018-10-18T11:01:47.675Z,17.00
2018-10-18T11:04:17.591Z,17.10
2018-10-18T11:06:47.557Z,17.20
2018-10-18T11:09:17.750Z,17.20
2018-10-18T11:11:47.550Z,17.30
2018-10-18T11:14:17.842Z,17.40
2018-10-18T11:16:47.694Z,17.30
2018-10-18T11:19:17.547Z,17.20
2018-10-18T11:21:47.422Z,17.20
2018-10-18T11:24:17.407Z,17.10
2018-10-18T11:26:47.401Z,17.00
2018-10-18T11:29:17.791Z,17.10
2018-10-18T11:31:48.069Z,17.10
2018-10-18T11:34:18.050Z,17.10
2018-10-18T11:36:48.409Z,17.30
2018-10-18T11:39:18.262Z,17.30
2018-10-18T11:41:48.578Z,17.30
2018-10-18T11:44:18.809Z,17.20
2018-10-18T11:46:48.526Z,17.10
2018-10-18T11:49:18.574Z,17.20
2018-10-18T11:51:48.905Z,17.10
2018-10-18T11:54:18.658Z,17.00
2018-10-18T11:56:48.826Z,17.00
2018-10-18T11:59:18.812Z,17.10
2018-10-18T12:01:52.724Z,17.10
2018-10-18T12:04:22.809Z,17.10
2018-10-18T12:06:52.781Z,17.20
2018-10-18T12:09:22.769Z,17.30
2018-10-18T12:11:52.628Z,17.60
2018-10-18T12:14:22.501Z,17.60
2018-10-18T12:16:52.517Z,17.50
2018-10-18T12:19:22.522Z,17.50
2018-10-18T12:21:52.328Z,17.50
2018-10-18T12:24:22.623Z,17.40
2018-10-18T12:26:52.734Z,17.40
2018-10-18T12:29:22.527Z,17.30
2018-10-18T12:31:52.588Z,17.30
2018-10-18T12:34:22.653Z,17.30
2018-10-18T12:36:52.788Z,17.30
2018-10-18T12:39:22.841Z,17.40
2018-10-18T12:41:52.960Z,17.40
2018-10-18T12:44:22.769Z,17.30
2018-10-18T12:46:52.543Z,17.20
2018-10-18T12:49:22.595Z,17.10
2018-10-18T12:51:52.657Z,17.10
2018-10-18T12:54:22.925Z,17.10
2018-10-18T12:56:52.806Z,17.10
2018-10-18T12:59:22.828Z,17.10
2018-10-18T13:01:53.192Z,17.00
2018-10-18T13:04:23.095Z,16.90
2018-10-18T13:06:52.973Z,16.90
2018-10-18T13:09:22.946Z,16.80
2018-10-18T13:11:52.794Z,16.80
2018-10-18T13:14:22.846Z,16.80
2018-10-18T13:16:52.856Z,16.80
2018-10-18T13:19:23.214Z,16.70
2018-10-18T13:21:53.187Z,16.60
2018-10-18T13:24:23.734Z,16.40
2018-10-18T13:26:53.867Z,16.40
2018-10-18T13:29:24.160Z,16.40
2018-10-18T13:31:54.224Z,16.30
2018-10-18T13:34:24.003Z,16.20
2018-10-18T13:36:54.188Z,16.10
2018-10-18T13:39:24.180Z,16.10
2018-10-18T13:41:54.249Z,16.20
2018-10-18T13:44:24.169Z,16.20
2018-10-18T13:46:54.054Z,16.20
2018-10-18T13:49:24.244Z,16.20
2018-10-18T13:51:54.284Z,16.20
2018-10-18T13:54:24.221Z,16.20
2018-10-18T13:56:54.285Z,16.30
2018-10-18T13:59:40.908Z,16.40
2018-10-18T14:02:11.234Z,16.50
2018-10-18T14:04:41.114Z,16.60
2018-10-18T14:07:11.337Z,16.60
2018-10-18T14:09:41.412Z,16.70
2018-10-18T14:12:11.767Z,16.70
2018-10-18T14:14:42.481Z,16.80
2018-10-18T14:17:12.489Z,16.80
2018-10-18T14:19:42.662Z,16.70
2018-10-18T14:22:12.479Z,16.70
2018-10-18T14:24:42.654Z,16.60
2018-10-18T14:27:12.489Z,16.60
2018-10-18T14:29:42.446Z,16.60
2018-10-18T14:32:12.433Z,16.60
2018-10-18T14:34:42.395Z,16.60
2018-10-18T14:37:12.347Z,16.60
2018-10-18T14:39:42.269Z,16.60
2018-10-18T14:42:12.382Z,16.70
2018-10-18T14:44:42.626Z,16.70
2018-10-18T14:47:12.574Z,16.70
2018-10-18T14:49:42.541Z,16.70
2018-10-18T14:52:12.775Z,16.70
2018-10-18T14:54:42.781Z,16.50
2018-10-18T14:57:12.989Z,16.30
2018-10-18T14:59:43.357Z,16.20
2018-10-18T15:02:13.842Z,16.20
2018-10-18T15:04:43.693Z,16.20
2018-10-18T15:07:14.008Z,16.20
2018-10-18T15:09:43.897Z,16.10
2018-10-18T15:12:13.871Z,16.10
2018-10-18T15:14:43.920Z,16.00
2018-10-18T15:17:13.995Z,16.00
2018-10-18T15:19:44.331Z,16.00
2018-10-18T15:22:14.365Z,15.90
2018-10-18T15:24:44.431Z,15.90
2018-10-18T15:27:14.572Z,15.80
2018-10-18T15:29:44.427Z,15.80
2018-10-18T15:32:14.529Z,15.80
2018-10-18T15:34:44.317Z,15.80
2018-10-18T15:37:14.622Z,15.80
2018-10-18T15:39:44.520Z,15.80
2018-10-18T15:42:14.890Z,15.80
2018-10-18T15:44:44.878Z,15.70
2018-10-18T15:47:15.036Z,15.50
2018-10-18T15:49:45.061Z,15.40
2018-10-18T15:52:15.052Z,15.30
2018-10-18T15:54:45.065Z,15.20
2018-10-18T15:57:15.062Z,15.20
2018-10-18T15:59:45.000Z,15.20
2018-10-18T16:02:15.101Z,15.10
2018-10-18T16:04:45.207Z,15.10
2018-10-18T16:07:15.267Z,15.10
2018-10-18T16:09:45.060Z,15.00
2018-10-18T16:12:14.963Z,15.00
2018-10-18T16:14:45.184Z,15.10
2018-10-18T16:17:15.385Z,15.10
2018-10-18T16:19:45.519Z,15.10
2018-10-18T16:22:15.374Z,15.00
2018-10-18T16:24:45.764Z,14.90
2018-10-18T16:27:15.773Z,14.80
2018-10-18T16:29:45.565Z,14.90
2018-10-18T16:32:15.494Z,14.80
2018-10-18T16:34:45.631Z,14.80
2018-10-18T16:37:15.797Z,14.80
2018-10-18T16:39:46.106Z,14.80
2018-10-18T16:42:16.330Z,14.80
2018-10-18T16:44:46.246Z,14.80
2018-10-18T16:47:16.088Z,14.90
2018-10-18T16:49:46.465Z,14.90
2018-10-18T16:52:16.514Z,14.90
2018-10-18T16:54:46.413Z,14.80
2018-10-18T16:57:16.454Z,14.70
2018-10-18T16:59:46.689Z,14.80
2018-10-18T17:02:17.326Z,14.80
2018-10-18T17:04:47.705Z,14.70
2018-10-18T17:07:17.618Z,14.70
2018-10-18T17:09:47.781Z,14.70
2018-10-18T17:12:17.982Z,14.70
2018-10-18T17:14:47.923Z,14.70
2018-10-18T17:17:18.016Z,14.70
2018-10-18T17:19:48.112Z,14.70
2018-10-18T17:22:18.025Z,14.70
2018-10-18T17:24:48.197Z,14.70
2018-10-18T17:27:18.358Z,14.70
2018-10-18T17:29:48.516Z,14.70
2018-10-18T17:32:19.054Z,14.70
2018-10-18T17:34:49.104Z,14.70
2018-10-18T17:37:19.124Z,14.70
2018-10-18T17:39:48.987Z,14.60
2018-10-18T17:42:18.987Z,14.60
2018-10-18T17:44:48.860Z,14.60
2018-10-18T17:47:18.851Z,14.60
2018-10-18T17:49:48.910Z,14.60
2018-10-18T17:52:18.868Z,14.60
2018-10-18T17:54:48.758Z,14.60
2018-10-18T17:57:18.575Z,14.60
2018-10-18T17:59:48.566Z,14.60
2018-10-18T18:02:18.566Z,14.60
2018-10-18T18:04:48.315Z,14.60
2018-10-18T18:07:18.200Z,14.60
2018-10-18T18:09:48.116Z,14.50
2018-10-18T18:12:18.136Z,14.50
2018-10-18T18:14:47.939Z,14.60
2018-10-18T18:17:17.923Z,14.60
2018-10-18T18:19:47.737Z,14.60
2018-10-18T18:22:17.609Z,14.60
2018-10-18T18:24:47.538Z,14.60
2018-10-18T18:27:17.844Z,14.50
2018-10-18T18:29:47.799Z,14.50
2018-10-18T18:32:17.539Z,14.50
2018-10-18T18:34:47.396Z,14.50
2018-10-18T18:37:17.257Z,14.40
2018-10-18T18:39:47.202Z,14.50
2018-10-18T18:42:17.141Z,14.50
2018-10-18T18:44:47.127Z,14.50
2018-10-18T18:47:16.938Z,14.50
2018-10-18T18:49:47.063Z,14.50
2018-10-18T18:52:16.942Z,14.50
2018-10-18T18:54:46.903Z,14.50
2018-10-18T18:57:16.648Z,14.50
2018-10-18T18:59:46.537Z,14.50
2018-10-18T19:02:16.454Z,14.50
2018-10-18T19:04:46.229Z,14.50
2018-10-18T19:07:16.266Z,14.50
2018-10-18T19:09:46.112Z,14.50
2018-10-18T19:12:16.017Z,14.40
2018-10-18T19:14:45.994Z,14.50
2018-10-18T19:17:15.983Z,14.50
2018-10-18T19:19:45.865Z,14.50
2018-10-18T19:22:15.660Z,14.50
2018-10-18T19:24:45.570Z,14.50
2018-10-18T19:27:15.488Z,14.40
2018-10-18T19:29:45.318Z,14.50
2018-10-18T19:32:15.416Z,14.50
2018-10-18T19:34:45.523Z,14.50
2018-10-18T19:37:15.560Z,14.50
2018-10-18T19:39:45.443Z,14.50
2018-10-18T19:42:15.372Z,14.40
2018-10-18T19:44:45.585Z,14.40
2018-10-18T19:47:15.541Z,14.40
2018-10-18T19:49:45.646Z,14.40
2018-10-18T19:52:15.540Z,14.50
2018-10-18T19:54:45.578Z,14.40
2018-10-18T19:57:15.750Z,14.40
2018-10-18T19:59:45.672Z,14.40
2018-10-18T20:02:15.675Z,14.30
2018-10-18T20:04:45.656Z,14.30
2018-10-18T20:07:15.607Z,14.30
2018-10-18T20:09:45.552Z,14.30
2018-10-18T20:12:15.509Z,14.40
2018-10-18T20:14:45.358Z,14.40
2018-10-18T20:17:15.258Z,14.40
2018-10-18T20:19:45.322Z,14.30
2018-10-18T20:22:15.147Z,14.30
2018-10-18T20:24:45.190Z,14.20
2018-10-18T20:27:15.139Z,14.10
2018-10-18T20:29:44.915Z,13.90
2018-10-18T20:32:14.877Z,13.80
2018-10-18T20:34:44.972Z,13.70
2018-10-18T20:37:14.853Z,13.60
2018-10-18T20:39:44.765Z,13.60
2018-10-18T20:42:14.714Z,13.60
2018-10-18T20:44:44.703Z,13.70
2018-10-18T20:47:15.136Z,13.70
2018-10-18T20:49:44.877Z,13.70
2018-10-18T20:52:14.982Z,13.60
2018-10-18T20:54:45.060Z,13.70
2018-10-18T20:57:14.967Z,13.70
2018-10-18T20:59:44.974Z,13.70
2018-10-18T21:02:14.873Z,13.70
2018-10-18T21:04:45.081Z,13.70
2018-10-18T21:07:15.030Z,13.80
2018-10-18T21:09:45.034Z,13.80
2018-10-18T21:12:14.874Z,13.80
2018-10-18T21:14:44.827Z,13.80
2018-10-18T21:17:15.151Z,13.80
2018-10-18T21:19:44.861Z,13.80
2018-10-18T21:22:14.880Z,13.70
2018-10-18T21:24:45.025Z,13.80
2018-10-18T21:27:15.378Z,13.70
2018-10-18T21:29:45.396Z,13.80
2018-10-18T21:32:15.291Z,13.80
2018-10-18T21:34:45.233Z,13.80
2018-10-18T21:37:15.154Z,13.70
2018-10-18T21:39:45.279Z,13.70
2018-10-18T21:42:15.588Z,13.70
2018-10-18T21:44:46.224Z,13.60
2018-10-18T21:47:17.351Z,13.70
2018-10-18T21:49:47.387Z,13.70
2018-10-18T21:52:17.313Z,13.80
2018-10-18T21:54:47.261Z,13.80
2018-10-18T21:57:17.350Z,13.80
2018-10-18T21:59:47.400Z,13.80
2018-10-18T22:02:17.424Z,13.80
2018-10-18T22:04:47.323Z,13.80
2018-10-18T22:07:17.337Z,13.80
2018-10-18T22:09:47.078Z,13.80
2018-10-18T22:12:16.966Z,13.80
2018-10-18T22:14:47.031Z,13.80
2018-10-18T22:17:16.976Z,13.70
2018-10-18T22:19:46.989Z,13.70
2018-10-18T22:22:17.597Z,13.70
2018-10-18T22:24:47.601Z,13.70
2018-10-18T22:27:17.628Z,13.70
2018-10-18T22:29:47.412Z,13.70
2018-10-18T22:32:17.456Z,13.70
2018-10-18T22:34:47.566Z,13.70
2018-10-18T22:37:17.593Z,13.70
2018-10-18T22:39:47.510Z,13.70
2018-10-18T22:42:17.774Z,13.70
2018-10-18T22:44:48.006Z,13.80
2018-10-18T22:47:18.204Z,13.80
2018-10-18T22:49:48.454Z,13.80
2018-10-18T22:52:18.399Z,13.70
2018-10-18T22:54:48.557Z,13.70
2018-10-18T22:57:18.925Z,13.70
2018-10-18T22:59:48.878Z,13.60
2018-10-18T23:02:18.757Z,13.60
2018-10-18T23:04:48.700Z,13.60
2018-10-18T23:07:18.632Z,13.70
2018-10-18T23:09:48.645Z,13.60
2018-10-18T23:12:18.576Z,13.60
2018-10-18T23:14:48.449Z,13.60
2018-10-18T23:17:18.428Z,13.60
2018-10-18T23:19:48.278Z,13.50
2018-10-18T23:22:18.288Z,13.50
2018-10-18T23:24:48.468Z,13.50
2018-10-18T23:27:17.448Z,13.50
2018-10-18T23:29:47.642Z,13.50
2018-10-18T23:32:17.457Z,13.50
2018-10-18T23:34:47.398Z,13.50
2018-10-18T23:37:17.366Z,13.50
2018-10-18T23:39:47.249Z,13.50
2018-10-18T23:42:17.174Z,13.50
2018-10-18T23:44:47.148Z,13.50
2018-10-18T23:47:17.006Z,13.50
2018-10-18T23:49:46.870Z,13.50
2018-10-18T23:52:16.873Z,13.40
2018-10-18T23:54:46.901Z,13.50
2018-10-18T23:57:16.981Z,13.40
2018-10-18T23:59:46.725Z,13.40
